Time;durP1;ratioP1;P1;durP2;ratioP2;P2;SDS_P1;SDS_P2;PMS_P1;PMS_P2;Temp;Humidity;BMP_temperature;BMP_pressure;BME280_temperature;BME280_humidity;BME280_pressure;Samples;Min_cycle;Max_cycle;Signal;HPM_P1;HPM_P2
2023/01/26 00:01:15;;;;;;;78.78;15.95;;;0.40;99.90;;;;;;5095325;28;20051;-84
2023/01/26 00:03:41;;;;;;;106.97;20.75;;;0.30;99.90;;;;;;5113141;28;20054;-83
2023/01/26 00:06:10;;;;;;;62.65;14.32;;;1.00;99.90;;;;;;5116083;28;20526;-82
2023/01/26 00:08:40;;;;;;;81.82;17.25;;;1.00;99.90;;;;;;5116187;28;20059;-88
2023/01/26 00:11:08;;;;;;;81.63;16.50;;;0.80;99.90;;;;;;5099215;28;20051;-84
2023/01/26 00:13:34;;;;;;;90.45;17.55;;;0.40;99.90;;;;;;5099351;28;20078;-83
2023/01/26 00:16:01;;;;;;;52.28;12.10;;;0.40;99.90;;;;;;5098948;28;20047;-83
2023/01/26 00:18:27;;;;;;;98.78;18.23;;;1.40;99.90;;;;;;5115902;28;20044;-84
2023/01/26 00:21:01;;;;;;;94.13;18.00;;;0.80;99.90;;;;;;5116067;28;20050;-84
2023/01/26 00:23:28;;;;;;;50.38;12.60;;;0.40;99.90;;;;;;5115834;28;20043;-83
2023/01/26 00:25:54;;;;;;;86.45;17.35;;;0.60;99.90;;;;;;5115531;28;20073;-82
2023/01/26 00:28:19;;;;;;;62.67;14.82;;;1.10;99.90;;;;;;5065435;28;20047;-84
2023/01/26 00:30:45;;;;;;;95.60;18.17;;;1.40;99.90;;;;;;5115892;28;20098;-83
2023/01/26 00:33:11;;;;;;;96.07;18.33;;;0.40;99.90;;;;;;5098791;28;20444;-84
2023/01/26 00:35:36;;;;;;;54.95;13.07;;;0.60;99.90;;;;;;5099272;28;20045;-82
2023/01/26 00:38:03;;;;;;;57.00;12.77;;;0.80;99.90;;;;;;5098546;28;20040;-82
2023/01/26 00:40:29;;;;;;;83.32;16.42;;;1.40;99.90;;;;;;5115983;28;20502;-84
2023/01/26 00:42:55;;;;;;;83.10;16.58;;;0.90;99.90;;;;;;5115716;28;20043;-84
2023/01/26 00:45:21;;;;;;;79.28;16.50;;;1.10;99.90;;;;;;5115732;28;20437;-84
2023/01/26 00:47:47;;;;;;;72.07;16.77;;;0.80;99.90;;;;;;5132629;27;20078;-84
2023/01/26 00:50:13;;;;;;;74.53;16.17;;;0.40;99.90;;;;;;5115430;28;20461;-83
2023/01/26 00:52:38;;;;;;;69.55;17.58;;;0.40;99.90;;;;;;5098631;28;20503;-83
2023/01/26 00:55:04;;;;;;;53.83;12.15;;;0.50;99.90;;;;;;5115098;28;20483;-83
2023/01/26 00:57:30;;;;;;;72.43;15.05;;;0.50;99.90;;;;;;5081592;28;20122;-83
2023/01/26 00:59:56;;;;;;;67.70;16.13;;;0.40;99.90;;;;;;5098129;28;20040;-82
2023/01/26 01:02:22;;;;;;;64.90;14.98;;;0.50;99.90;;;;;;5081375;28;20039;-82
2023/01/26 01:04:47;;;;;;;69.93;15.65;;;0.60;99.90;;;;;;5081143;28;20043;-83
2023/01/26 01:07:13;;;;;;;64.00;13.45;;;0.50;99.90;;;;;;5114955;28;20088;-81
2023/01/26 01:09:39;;;;;;;66.43;14.32;;;1.20;99.90;;;;;;5115326;28;20040;-84
2023/01/26 01:12:05;;;;;;;77.75;16.05;;;0.50;99.90;;;;;;5080933;28;20132;-83
2023/01/26 01:14:30;;;;;;;68.68;15.70;;;0.50;99.90;;;;;;5098239;28;20050;-83
2023/01/26 01:16:56;;;;;;;67.68;14.30;;;0.60;99.90;;;;;;5114682;28;20114;-83
2023/01/26 01:19:22;;;;;;;61.72;13.68;;;0.50;99.90;;;;;;5115108;28;20490;-83
2023/01/26 01:21:48;;;;;;;57.38;12.45;;;1.50;99.90;;;;;;5114708;27;20096;-83
2023/01/26 01:24:14;;;;;;;46.45;10.20;;;0.60;99.90;;;;;;5097964;28;20494;-84
2023/01/26 01:26:40;;;;;;;43.03;10.43;;;0.60;99.90;;;;;;5114707;28;20126;-82
2023/01/26 01:29:06;;;;;;;65.40;13.90;;;0.90;99.90;;;;;;5080632;28;20408;-83
2023/01/26 01:31:32;;;;;;;51.38;12.38;;;0.60;99.90;;;;;;5114782;28;20387;-83
2023/01/26 01:33:58;;;;;;;50.47;12.05;;;1.30;99.90;;;;;;5080577;28;20050;-83
2023/01/26 01:36:24;;;;;;;53.00;12.38;;;0.60;99.90;;;;;;5097844;28;20083;-84
2023/01/26 01:38:50;;;;;;;47.67;11.88;;;0.90;99.90;;;;;;5113922;28;20046;-83
2023/01/26 01:41:19;;;;;;;39.30;10.77;;;0.60;99.90;;;;;;5114606;28;20036;-83
2023/01/26 01:43:45;;;;;;;60.55;13.30;;;1.30;99.90;;;;;;5097673;28;20051;-84
2023/01/26 01:46:16;;;;;;;46.75;12.57;;;1.10;99.90;;;;;;5114280;28;20044;-83
2023/01/26 01:48:48;;;;;;;50.13;11.93;;;1.10;99.90;;;;;;5097628;28;20131;-83
2023/01/26 01:51:34;;;;;;;44.08;10.88;;;0.60;99.90;;;;;;5097227;28;20456;-83
2023/01/26 01:54:04;;;;;;;45.45;11.32;;;0.70;99.90;;;;;;5097101;28;20495;-83
2023/01/26 01:56:32;;;;;;;54.75;12.45;;;0.70;99.90;;;;;;5114205;28;20096;-84
2023/01/26 01:59:00;;;;;;;52.30;13.00;;;0.70;99.90;;;;;;5096630;28;20047;-84
2023/01/26 02:01:26;;;;;;;45.75;11.13;;;1.30;99.90;;;;;;5080441;28;20051;-84
2023/01/26 02:03:58;;;;;;;50.25;11.52;;;1.60;99.90;;;;;;5114225;28;20043;-84
2023/01/26 02:06:42;;;;;;;;;;;0.70;99.90;;;;;;5131885;27;20049;-84
2023/01/26 02:10:17;;;;;;;28.90;8.40;;;0.70;99.90;;;;;;5113655;28;19922;-83
2023/01/26 02:11:57;;;;;;;33.22;9.45;;;1.30;99.90;;;;;;5113357;28;20043;-83
2023/01/26 02:14:24;;;;;;;38.65;10.43;;;1.00;99.90;;;;;;5097018;28;20047;-83
2023/01/26 02:16:50;;;;;;;38.72;10.27;;;0.70;99.90;;;;;;5096947;28;20483;-82
2023/01/26 02:19:27;;;;;;;42.45;10.63;;;1.20;99.90;;;;;;5096353;28;20118;-84
2023/01/26 02:21:58;;;;;;;40.40;9.82;;;0.70;99.90;;;;;;5113688;28;20039;-81
2023/01/26 02:24:33;;;;;;;51.60;11.50;;;0.70;99.90;;;;;;5113477;28;20502;-82
2023/01/26 02:26:59;;;;;;;38.17;10.05;;;0.70;99.90;;;;;;5095597;28;20055;-83
2023/01/26 02:29:25;;;;;;;39.10;9.65;;;0.80;99.90;;;;;;5113714;28;20051;-83
2023/01/26 02:31:52;;;;;;;42.28;10.60;;;1.20;99.90;;;;;;5096717;28;20043;-82
2023/01/26 02:34:18;;;;;;;45.88;10.57;;;1.70;99.90;;;;;;5113246;28;20126;-84
2023/01/26 02:36:43;;;;;;;46.28;10.10;;;1.50;99.90;;;;;;5096452;28;20502;-82
2023/01/26 02:39:24;;;;;;;28.83;7.65;;;1.50;99.90;;;;;;5095900;28;20044;-81
2023/01/26 02:44:37;;;;;;;48.85;11.60;;;0.80;99.90;;;;;;5113286;28;20484;-82
2023/01/26 02:47:14;;;;;;;52.92;10.90;;;1.40;99.90;;;;;;5113123;28;20480;-81
2023/01/26 02:49:46;;;;;;;43.40;9.90;;;0.80;99.90;;;;;;5096578;28;20051;-83
2023/01/26 02:52:12;;;;;;;;;;;0.80;99.90;;;;;;5080290;28;20475;-81
2023/01/26 02:57:22;;;;;;;40.10;9.15;;;1.50;99.90;;;;;;5098394;28;20480;-81
2023/01/26 02:59:48;;;;;;;42.45;10.02;;;0.80;99.90;;;;;;5095787;28;20486;-81
2023/01/26 03:02:14;;;;;;;42.47;10.07;;;0.80;99.90;;;;;;5112885;28;20491;-81
2023/01/26 03:04:41;;;;;;;38.55;8.60;;;1.70;99.90;;;;;;5113438;28;20043;-81
2023/01/26 03:07:06;;;;;;;49.30;10.75;;;0.80;99.90;;;;;;5113407;28;20093;-83
2023/01/26 03:09:32;;;;;;;44.40;9.90;;;1.00;99.90;;;;;;5079029;28;20043;-82
2023/01/26 03:11:58;;;;;;;46.45;10.00;;;1.60;99.90;;;;;;5095820;28;20097;-81
2023/01/26 03:14:23;;;;;;;43.92;9.98;;;0.80;99.90;;;;;;5095424;28;20327;-81
2023/01/26 03:16:49;;;;;;;46.53;10.20;;;1.70;99.90;;;;;;5096086;28;20051;-81
2023/01/26 03:27:44;;;;;;;41.70;10.32;;;1.40;99.90;;;;;;5115928;27;20510;-81
2023/01/26 03:30:11;;;;;;;;;;;0.90;99.90;;;;;;5116250;27;20454;-81
2023/01/26 03:32:37;;;;;;;42.20;9.45;;;0.90;99.90;;;;;;5099227;28;20528;-81
2023/01/26 03:35:03;;;;;;;47.05;9.95;;;1.90;99.90;;;;;;5099216;27;20043;-82
2023/01/26 03:37:33;;;;;;;35.25;9.35;;;0.90;99.90;;;;;;5115523;27;20095;-81
2023/01/26 03:56:31;;;;;;;39.40;9.18;;;1.00;99.90;;;;;;5115739;28;20051;-82
2023/01/26 03:59:07;;;;;;;42.53;9.15;;;1.60;99.90;;;;;;5098709;28;20035;-82
2023/01/26 04:01:38;;;;;;;49.70;10.85;;;1.40;99.90;;;;;;5098438;28;20179;-82
2023/01/26 04:09:36;;;;;;;52.50;11.10;;;1.50;99.90;;;;;;5115685;28;20044;-82
2023/01/26 04:12:02;;;;;;;50.78;10.90;;;1.40;99.90;;;;;;5115841;28;20114;-82
2023/01/26 04:22:44;;;;;;;41.33;9.68;;;1.60;99.90;;;;;;5118132;28;20518;-82
2023/01/26 04:25:18;;;;;;;52.97;11.52;;;1.10;99.90;;;;;;5115418;28;20043;-83
2023/01/26 04:27:44;;;;;;;41.00;10.10;;;1.40;99.90;;;;;;5115599;28;20119;-83
2023/01/26 04:30:12;;;;;;;45.38;10.23;;;1.10;99.90;;;;;;5065632;28;20035;-83
2023/01/26 04:32:39;;;;;;;52.95;10.68;;;1.10;99.90;;;;;;5115315;28;20053;-83
2023/01/26 04:35:05;;;;;;;46.00;9.77;;;1.00;99.90;;;;;;5079248;28;20042;-85
2023/01/26 04:37:31;;;;;;;49.60;10.68;;;1.10;99.90;;;;;;5096049;28;20061;-82
2023/01/26 04:39:57;;;;;;;50.78;11.15;;;1.10;99.90;;;;;;5079667;28;20046;-83
2023/01/26 04:42:23;;;;;;;54.50;11.48;;;1.10;99.90;;;;;;5113236;28;20460;-84
2023/01/26 04:44:52;;;;;;;52.33;10.75;;;1.40;99.90;;;;;;5113337;28;20155;-84
2023/01/26 04:47:19;;;;;;;54.10;10.77;;;1.70;99.90;;;;;;5095465;28;20432;-86
2023/01/26 04:49:45;;;;;;;47.42;10.63;;;1.90;99.90;;;;;;5097191;27;20055;-84
2023/01/26 04:52:11;;;;;;;55.03;11.25;;;1.30;99.90;;;;;;5116853;27;20186;-84
2023/01/26 04:54:37;;;;;;;53.88;10.80;;;1.10;99.90;;;;;;5116598;27;20046;-84
2023/01/26 04:57:03;;;;;;;46.15;10.98;;;1.10;99.90;;;;;;5099883;27;20039;-84
2023/01/26 04:59:29;;;;;;;35.67;8.13;;;1.10;99.90;;;;;;5082333;27;20043;-84
2023/01/26 05:01:55;;;;;;;46.20;10.88;;;1.10;99.90;;;;;;5116854;27;20035;-84
2023/01/26 05:04:21;;;;;;;49.85;11.52;;;1.10;99.90;;;;;;5099536;27;20050;-87
2023/01/26 05:06:46;;;;;;;47.70;10.82;;;1.20;99.90;;;;;;5099674;27;20481;-84
2023/01/26 05:09:12;;;;;;;53.60;11.23;;;1.80;99.90;;;;;;5099800;27;20047;-84
2023/01/26 05:11:39;;;;;;;45.20;10.40;;;1.40;99.90;;;;;;5082100;27;20402;-84
2023/01/26 05:14:10;;;;;;;54.14;11.42;;;1.30;99.90;;;;;;4956943;27;10001008;-84
2023/01/26 05:16:36;;;;;;;58.92;12.10;;;2.00;99.90;;;;;;5103011;27;20346;-85
2023/01/26 05:19:01;;;;;;;59.97;12.48;;;2.10;99.90;;;;;;5136746;27;20073;-84
2023/01/26 05:21:27;;;;;;;57.47;11.73;;;1.90;99.90;;;;;;5136811;27;20038;-84
2023/01/26 05:23:53;;;;;;;54.53;12.00;;;1.80;99.90;;;;;;5136524;27;20367;-84
2023/01/26 05:26:19;;;;;;;64.65;12.32;;;2.10;99.90;;;;;;5119302;27;20050;-85
2023/01/26 05:28:45;;;;;;;51.45;11.95;;;1.30;99.90;;;;;;5102820;27;20047;-84
2023/01/26 05:31:11;;;;;;;48.63;11.07;;;2.00;99.90;;;;;;5120153;27;20470;-84
2023/01/26 05:33:37;;;;;;;67.53;12.05;;;2.00;99.90;;;;;;5136785;27;20125;-84
2023/01/26 05:36:05;;;;;;;52.92;11.77;;;2.10;99.90;;;;;;5138818;27;20394;-84
2023/01/26 05:38:31;;;;;;;55.25;11.23;;;1.30;99.90;;;;;;5121174;27;20304;-84
2023/01/26 05:40:56;;;;;;;52.47;11.23;;;2.20;99.90;;;;;;5138821;27;20073;-84
2023/01/26 05:43:22;;;;;;;43.45;10.13;;;2.10;99.90;;;;;;5121757;27;20435;-83
2023/01/26 05:45:48;;;;;;;52.65;11.15;;;1.80;99.90;;;;;;5104414;27;20039;-83
2023/01/26 05:48:14;;;;;;;50.15;11.35;;;1.80;99.90;;;;;;5121674;27;20047;-84
2023/01/26 05:50:40;;;;;;;57.03;12.10;;;1.80;99.90;;;;;;5121331;27;20125;-85
2023/01/26 05:53:05;;;;;;;52.85;11.25;;;2.50;99.90;;;;;;5121537;27;20064;-84
2023/01/26 05:55:31;;;;;;;49.35;11.48;;;2.10;99.90;;;;;;5121260;27;20091;-84
2023/01/26 05:57:57;;;;;;;59.72;11.73;;;2.30;99.90;;;;;;5121290;27;20474;-84
2023/01/26 06:00:23;;;;;;;61.78;12.40;;;2.20;99.90;;;;;;5087254;27;20043;-83
2023/01/26 06:02:49;;;;;;;59.42;11.82;;;1.90;99.90;;;;;;5120062;27;20042;-84
2023/01/26 06:05:15;;;;;;;55.90;11.68;;;1.90;99.90;;;;;;5121081;27;20035;-83
2023/01/26 06:07:40;;;;;;;51.40;11.07;;;1.30;99.90;;;;;;5103989;27;20038;-83
2023/01/26 06:10:07;;;;;;;61.40;13.00;;;2.20;99.90;;;;;;5120538;27;20125;-84
2023/01/26 06:12:34;;;;;;;64.00;12.82;;;1.30;99.90;;;;;;5103935;27;20041;-84
2023/01/26 06:15:04;;;;;;;53.67;11.95;;;1.40;99.90;;;;;;5104396;27;20043;-84
2023/01/26 06:17:30;;;;;;;57.60;11.75;;;1.40;99.90;;;;;;5138200;27;20378;-85
2023/01/26 06:19:56;;;;;;;42.00;10.63;;;1.70;99.90;;;;;;5103635;27;20042;-84
2023/01/26 06:22:22;;;;;;;59.55;12.68;;;2.10;99.90;;;;;;5138029;27;20133;-84
2023/01/26 06:24:47;;;;;;;59.28;11.20;;;2.30;99.90;;;;;;5137587;27;20498;-84
2023/01/26 06:27:15;;;;;;;46.83;11.52;;;1.40;99.90;;;;;;5087143;27;20049;-85
2023/01/26 06:29:41;;;;;;;68.28;11.82;;;2.20;99.90;;;;;;5120242;27;20038;-84
2023/01/26 06:32:10;;;;;;;53.22;11.25;;;1.50;99.90;;;;;;5120892;27;20046;-85
2023/01/26 06:34:36;;;;;;;53.00;11.45;;;1.60;99.90;;;;;;5137257;27;20485;-85
2023/01/26 06:37:02;;;;;;;68.10;11.38;;;1.40;99.90;;;;;;5120573;27;20034;-85
2023/01/26 06:39:27;;;;;;;69.53;11.40;;;1.40;99.90;;;;;;5103361;27;20039;-85
2023/01/26 06:41:53;;;;;;;76.15;11.55;;;1.40;99.90;;;;;;5086544;27;20400;-85
2023/01/26 06:44:19;;;;;;;64.18;11.57;;;1.40;99.90;;;;;;5120525;27;20038;-86
2023/01/26 06:46:44;;;;;;;51.38;10.63;;;1.40;99.90;;;;;;5120142;27;20038;-86
2023/01/26 06:49:10;;;;;;;63.58;11.63;;;1.90;99.90;;;;;;5103502;27;20121;-86
2023/01/26 06:51:57;;;;;;;59.85;12.70;;;1.30;99.90;;;;;;5120078;27;20545;-86
2023/01/26 06:54:23;;;;;;;55.75;12.55;;;1.40;99.90;;;;;;5120376;27;20195;-85
2023/01/26 06:56:48;;;;;;;69.10;12.27;;;2.10;99.90;;;;;;5103241;27;20526;-87
2023/01/26 06:59:14;;;;;;;60.88;11.60;;;2.00;99.90;;;;;;5086096;27;20034;-87
2023/01/26 07:01:48;;;;;;;56.55;11.40;;;1.30;99.90;;;;;;5103089;27;20090;-88
2023/01/26 07:04:15;;;;;;;57.00;11.15;;;1.60;99.90;;;;;;5120112;27;20136;-87
2023/01/26 07:06:42;;;;;;;64.97;12.73;;;1.80;99.90;;;;;;5119941;27;20052;-85
2023/01/26 07:09:09;;;;;;;73.70;12.32;;;1.90;99.90;;;;;;5137241;27;20392;-86
2023/01/26 07:11:35;;;;;;;82.18;12.80;;;1.30;99.90;;;;;;5136801;27;20043;-86
2023/01/26 07:14:00;;;;;;;52.67;11.18;;;1.30;99.90;;;;;;5119843;27;20041;-86
2023/01/26 07:16:26;;;;;;;63.80;12.57;;;1.30;99.90;;;;;;5086103;27;20042;-86
2023/01/26 07:18:54;;;;;;;60.60;12.73;;;1.30;99.90;;;;;;5119092;27;20046;-87
2023/01/26 07:21:21;;;;;;;61.33;12.05;;;1.40;99.90;;;;;;5102773;27;20046;-87
2023/01/26 07:23:47;;;;;;;52.58;11.80;;;1.40;99.90;;;;;;5102077;27;20047;-86
2023/01/26 07:26:13;;;;;;;68.10;12.85;;;2.00;99.90;;;;;;5115504;27;20074;-86
2023/01/26 07:28:40;;;;;;;81.28;13.07;;;1.70;99.90;;;;;;5098847;27;20460;-89
2023/01/26 07:31:06;;;;;;;74.13;12.65;;;1.40;99.90;;;;;;5132542;27;20463;-87
2023/01/26 07:33:33;;;;;;;65.20;12.73;;;2.40;99.90;;;;;;5115562;27;20043;-86
2023/01/26 07:35:59;;;;;;;72.25;12.80;;;1.40;99.90;;;;;;5115804;27;20332;-87
2023/01/26 07:38:25;;;;;;;76.38;13.95;;;2.20;99.90;;;;;;5133193;27;20538;-87
2023/01/26 07:40:51;;;;;;;69.28;13.38;;;1.60;99.90;;;;;;5115986;28;20130;-86
2023/01/26 07:43:17;;;;;;;79.03;14.25;;;1.50;99.90;;;;;;5099234;27;20129;-86
2023/01/26 07:45:50;;;;;;;78.15;13.85;;;2.20;99.90;;;;;;5104100;28;20033;-88
2023/01/26 07:48:17;;;;;;;70.78;13.10;;;1.50;99.90;;;;;;5096197;28;20043;-87
2023/01/26 07:50:44;;;;;;;73.88;13.98;;;1.50;99.90;;;;;;5095871;28;20040;-88
2023/01/26 07:53:11;;;;;;;69.03;12.95;;;2.10;99.90;;;;;;5112832;28;20128;-86
2023/01/26 07:55:37;;;;;;;79.40;13.65;;;2.00;99.90;;;;;;5096118;28;20058;-86
2023/01/26 07:58:03;;;;;;;73.55;13.23;;;2.50;99.90;;;;;;5095987;28;20046;-86
2023/01/26 08:00:29;;;;;;;67.80;12.32;;;1.90;99.90;;;;;;5096081;28;20126;-87
2023/01/26 08:02:55;;;;;;;77.18;13.18;;;2.10;99.90;;;;;;5095846;28;20092;-87
2023/01/26 08:05:20;;;;;;;74.38;13.20;;;1.40;99.90;;;;;;5078503;28;20452;-86
2023/01/26 08:07:47;;;;;;;65.43;11.85;;;1.50;99.90;;;;;;5078366;28;20480;-88
2023/01/26 08:10:13;;;;;;;63.35;12.65;;;1.40;99.90;;;;;;5078861;28;20433;-86
2023/01/26 08:12:39;;;;;;;65.63;14.02;;;1.40;99.90;;;;;;4735224;28;9999868;-86
2023/01/26 08:15:05;;;;;;;88.18;14.77;;;1.60;99.90;;;;;;5093017;28;20448;-86
2023/01/26 08:17:32;;;;;;;65.80;13.95;;;1.40;99.90;;;;;;5093134;28;20042;-86
2023/01/26 08:19:58;;;;;;;72.90;10.98;;;2.10;99.90;;;;;;5076427;28;20035;-86
2023/01/26 08:22:24;;;;;;;62.15;10.13;;;2.30;99.90;;;;;;5110106;28;20043;-86
2023/01/26 08:24:50;;;;;;;70.22;11.25;;;1.40;99.90;;;;;;5064054;27;20040;-86
2023/01/26 08:27:16;;;;;;;66.57;10.52;;;2.20;99.90;;;;;;5121308;27;20042;-86
2023/01/26 08:29:42;;;;;;;76.28;11.23;;;1.60;99.90;;;;;;5121022;27;20389;-86
2023/01/26 08:32:08;;;;;;;87.20;12.02;;;1.60;99.90;;;;;;5120972;27;20046;-84
2023/01/26 08:34:35;;;;;;;228.25;20.30;;;1.90;99.90;;;;;;5103630;27;20043;-85
2023/01/26 08:37:02;;;;;;;86.00;12.07;;;1.80;99.90;;;;;;5103749;27;20078;-85
2023/01/26 08:39:28;;;;;;;66.13;10.32;;;1.60;99.90;;;;;;5119943;27;20042;-84
2023/01/26 08:41:54;;;;;;;85.65;11.85;;;1.60;99.90;;;;;;5139156;27;20091;-83
2023/01/26 08:44:20;;;;;;;58.80;9.57;;;1.70;99.90;;;;;;5139986;27;20089;-84
2023/01/26 08:46:45;;;;;;;103.72;11.63;;;2.60;99.90;;;;;;5122906;27;20097;-83
2023/01/26 08:49:12;;;;;;;59.53;7.68;;;2.60;99.90;;;;;;5122495;27;20132;-83
2023/01/26 08:51:37;;;;;;;58.25;8.23;;;1.90;99.90;;;;;;5105354;27;20146;-83
2023/01/26 08:54:09;;;;;;;59.15;8.00;;;1.90;99.90;;;;;;5122434;27;20183;-82
2023/01/26 08:56:35;;;;;;;63.65;8.98;;;2.00;99.90;;;;;;5139674;27;20098;-83
2023/01/26 08:59:01;;;;;;;72.57;12.95;;;2.80;99.90;;;;;;5122321;27;20046;-82
2023/01/26 09:01:27;;;;;;;78.00;14.27;;;2.20;99.90;;;;;;5103614;27;20184;-82
2023/01/26 09:03:54;;;;;;;42.72;11.85;;;2.20;99.90;;;;;;5120049;27;20126;-82
2023/01/26 09:06:20;;;;;;;52.22;9.63;;;3.20;99.90;;;;;;5120342;27;20451;-82
2023/01/26 09:08:46;;;;;;;61.97;8.82;;;2.60;99.90;;;;;;5136760;27;20375;-82
2023/01/26 09:11:12;;;;;;;47.47;7.30;;;3.20;99.90;;;;;;5119631;27;20038;-82
2023/01/26 09:13:38;;;;;;;44.65;8.30;;;3.50;99.90;;;;;;5136562;27;20053;-82
2023/01/26 09:16:14;;;;;;;57.80;7.00;;;3.10;99.90;;;;;;5136857;27;20382;-82
2023/01/26 09:18:40;;;;;;;51.53;6.63;;;3.60;99.90;;;;;;5136975;27;20039;-82
2023/01/26 09:21:08;;;;;;;47.22;5.97;;;3.70;99.90;;;;;;5102762;27;20057;-82
2023/01/26 09:23:34;;;;;;;50.88;6.82;;;3.60;99.90;;;;;;5119759;27;20055;-83
2023/01/26 09:26:01;;;;;;;56.70;7.18;;;3.70;99.90;;;;;;5132313;27;20463;-81
2023/01/26 09:28:27;;;;;;;58.08;8.32;;;4.40;99.90;;;;;;5116605;27;20132;-83
2023/01/26 09:30:53;;;;;;;56.67;6.50;;;4.40;99.90;;;;;;5116265;27;20047;-82
2023/01/26 09:33:20;;;;;;;42.72;6.10;;;4.90;99.90;;;;;;4762603;27;10000299;-83
2023/01/26 09:35:46;;;;;;;55.60;6.20;;;4.50;99.90;;;;;;5098603;28;20081;-83
2023/01/26 09:38:12;;;;;;;46.83;6.72;;;5.30;99.90;;;;;;5132127;27;20074;-83
2023/01/26 09:41:13;;;;;;;45.80;7.25;;;4.70;99.90;;;;;;5116103;27;20125;-83
2023/01/26 09:43:58;;;;;;;54.80;7.97;;;4.90;99.90;;;;;;5127995;27;20055;-83
2023/01/26 09:46:37;;;;;;;48.13;6.85;;;5.00;99.90;;;;;;5132993;27;20043;-85
2023/01/26 09:49:03;;;;;;;52.17;7.75;;;5.20;99.90;;;;;;5132412;27;20309;-84
2023/01/26 09:51:47;;;;;;;53.47;7.45;;;5.30;99.90;;;;;;5115882;27;20054;-85
2023/01/26 09:54:34;;;;;;;64.72;7.75;;;5.40;99.90;;;;;;5132912;27;20046;-85
2023/01/26 09:57:09;;;;;;;53.78;6.72;;;5.50;99.90;;;;;;5133190;27;20179;-85
2023/01/26 09:59:45;;;;;;;46.28;6.80;;;5.60;99.90;;;;;;5115639;27;20115;-84
2023/01/26 10:02:21;;;;;;;44.53;6.10;;;5.80;99.90;;;;;;5132262;27;20047;-84
2023/01/26 10:04:51;;;;;;;43.50;5.53;;;5.90;99.90;;;;;;5115759;27;20043;-84
2023/01/26 10:07:17;;;;;;;47.40;5.63;;;6.00;99.90;;;;;;5115739;27;20590;-84
2023/01/26 10:09:48;;;;;;;46.90;5.63;;;6.40;99.90;;;;;;5115432;27;20043;-85
2023/01/26 10:12:27;;;;;;;41.17;6.32;;;6.20;99.90;;;;;;5132390;27;20459;-84
2023/01/26 10:15:29;;;;;;;38.92;5.57;;;6.40;99.90;;;;;;5114677;27;20498;-85
2023/01/26 10:17:56;;;;;;;43.13;5.22;;;6.50;99.90;;;;;;5101718;27;20394;-84
2023/01/26 10:20:41;;;;;;;43.65;4.85;;;6.70;99.90;;;;;;5115150;27;20447;-86
2023/01/26 10:23:22;;;;;;;34.28;4.22;;;6.80;99.90;;;;;;5115371;27;20089;-87
2023/01/26 10:25:50;;;;;;;43.90;4.05;;;7.00;99.90;;;;;;5114877;27;20482;-88
2023/01/26 10:28:28;;;;;;;45.40;4.05;;;7.20;99.90;;;;;;5115807;27;20134;-88
2023/01/26 10:30:54;;;;;;;33.60;5.05;;;7.30;99.90;;;;;;5115711;27;20147;-87
2023/01/26 10:33:22;;;;;;;39.75;5.40;;;7.40;99.90;;;;;;5133657;27;20495;-87
2023/01/26 10:35:48;;;;;;;35.28;4.03;;;7.50;99.90;;;;;;5116812;27;20278;-86
2023/01/26 10:38:27;;;;;;;31.00;4.25;;;7.60;99.90;;;;;;5113590;27;20040;-86
2023/01/26 10:40:53;;;;;;;26.35;3.03;;;7.70;99.90;;;;;;5079429;28;20043;-83
2023/01/26 10:43:19;;;;;;;35.40;3.58;;;7.80;99.90;;;;;;5095269;28;20395;-83
2023/01/26 10:45:46;;;;;;;30.98;3.80;;;7.90;99.90;;;;;;5079326;28;20039;-85
2023/01/26 10:48:23;;;;;;;30.65;3.60;;;8.00;99.90;;;;;;5094036;28;20126;-86
2023/01/26 10:50:49;;;;;;;25.42;4.25;;;8.10;99.90;;;;;;5110782;28;20476;-85
2023/01/26 10:53:17;;;;;;;21.20;3.15;;;8.20;99.90;;;;;;5077236;28;20043;-85
2023/01/26 10:56:10;;;;;;;23.98;2.70;;;8.20;99.90;;;;;;5111272;28;20050;-84
2023/01/26 10:58:54;;;;;;;20.45;2.50;;;8.30;99.90;;;;;;5111043;28;20480;-86
2023/01/26 11:01:26;;;;;;;19.40;2.65;;;8.30;99.90;;;;;;5093844;28;20039;-85
2023/01/26 11:04:05;;;;;;;;;;;8.40;99.90;;;;;;5070216;28;20118;-86
2023/01/26 11:06:32;;;;;;;18.17;2.40;;;8.40;99.90;;;;;;5083971;28;19998;-85
2023/01/26 11:09:25;;;;;;;17.55;2.55;;;8.50;99.90;;;;;;5087562;28;20051;-85
2023/01/26 11:12:00;;;;;;;27.02;3.38;;;8.60;99.90;;;;;;5073560;28;20044;-85
2023/01/26 11:14:27;;;;;;;17.45;2.20;;;8.60;99.90;;;;;;5073072;28;20059;-84
2023/01/26 11:17:07;;;;;;;19.23;2.08;;;8.60;99.90;;;;;;5073674;28;20051;-83
2023/01/26 11:20:06;;;;;;;23.25;2.70;;;8.60;99.90;;;;;;5073217;28;20036;-84
2023/01/26 11:23:05;;;;;;;15.90;2.17;;;8.60;99.90;;;;;;5073624;28;20043;-84
2023/01/26 11:25:40;;;;;;;15.40;2.50;;;8.50;99.90;;;;;;5100029;28;20111;-85
2023/01/26 11:28:34;;;;;;;16.48;2.17;;;8.70;99.90;;;;;;5114084;27;20047;-86
2023/01/26 11:31:31;;;;;;;16.10;1.95;;;8.70;99.90;;;;;;5114188;27;20536;-84
2023/01/26 11:34:12;;;;;;;16.88;2.40;;;8.80;99.90;;;;;;4761180;27;10000915;-83
2023/01/26 11:37:02;;;;;;;19.65;2.10;;;8.90;99.90;;;;;;5113992;27;20802;-84
2023/01/26 11:40:03;;;;;;;16.93;2.43;;;9.00;99.90;;;;;;5096611;27;20039;-84
2023/01/26 11:42:52;;;;;;;12.80;1.63;;;9.10;99.90;;;;;;5096833;27;20082;-84
2023/01/26 11:45:32;;;;;;;15.32;2.35;;;9.30;99.90;;;;;;5096858;27;20054;-86
2023/01/26 11:48:19;;;;;;;19.10;2.78;;;9.40;99.90;;;;;;5113880;27;20035;-83
2023/01/26 11:51:02;;;;;;;17.00;2.33;;;9.50;99.90;;;;;;5113444;28;20107;-84
2023/01/26 11:53:27;;;;;;;10.85;1.90;;;9.50;99.90;;;;;;5096652;28;20400;-84
2023/01/26 11:56:03;;;;;;;12.07;2.15;;;9.40;99.90;;;;;;5113170;28;20091;-83
2023/01/26 11:58:56;;;;;;;16.50;2.67;;;9.60;99.90;;;;;;5096263;27;20043;-83
2023/01/26 12:01:49;;;;;;;15.38;2.10;;;9.50;99.90;;;;;;5116575;27;20439;-83
2023/01/26 12:04:20;;;;;;;14.82;2.80;;;9.40;99.90;;;;;;5118016;27;20039;-83
2023/01/26 12:06:54;;;;;;;14.35;2.10;;;9.30;99.90;;;;;;5117995;27;20046;-83
2023/01/26 12:09:45;;;;;;;16.38;2.58;;;9.20;99.90;;;;;;5117990;27;20035;-83
2023/01/26 12:12:34;;;;;;;15.02;1.80;;;9.10;99.90;;;;;;5117874;27;20504;-84
2023/01/26 12:15:02;;;;;;;15.05;1.70;;;9.10;99.90;;;;;;5117301;27;20047;-84
2023/01/26 12:17:31;;;;;;;15.60;2.20;;;9.00;99.90;;;;;;5100425;27;20046;-84
2023/01/26 12:20:17;;;;;;;18.27;2.55;;;9.10;99.90;;;;;;5100710;27;20101;-84
2023/01/26 12:22:57;;;;;;;18.13;2.25;;;9.80;99.90;;;;;;5100393;27;20043;-84
2023/01/26 12:25:36;;;;;;;15.63;2.03;;;10.40;99.90;;;;;;5116708;27;20051;-84
2023/01/26 12:28:24;;;;;;;15.05;2.08;;;11.00;99.90;;;;;;5117619;27;20078;-85
2023/01/26 12:31:24;;;;;;;11.90;1.75;;;11.50;99.90;;;;;;5100544;27;20047;-84
2023/01/26 12:33:52;;;;;;;14.48;2.38;;;11.90;99.90;;;;;;5119673;27;20102;-83
2023/01/26 12:36:24;;;;;;;19.80;2.28;;;11.90;99.90;;;;;;5137721;27;20390;-84
2023/01/26 12:39:06;;;;;;;14.00;2.08;;;12.10;99.90;;;;;;5136897;27;20738;-84
2023/01/26 12:41:59;;;;;;;13.65;2.55;;;12.80;99.90;;;;;;5137692;27;20435;-85
2023/01/26 12:44:36;;;;;;;15.88;2.35;;;12.50;99.90;;;;;;5137778;27;20039;-84
2023/01/26 12:47:21;;;;;;;15.30;2.65;;;12.00;99.90;;;;;;5137911;27;20060;-84
2023/01/26 12:49:50;;;;;;;16.58;2.15;;;11.40;99.90;;;;;;5120527;27;20129;-84
2023/01/26 12:52:18;;;;;;;10.48;1.73;;;11.30;99.90;;;;;;5121282;27;20088;-84
2023/01/26 12:54:56;;;;;;;13.13;2.58;;;11.00;99.90;;;;;;5137679;27;20041;-83
2023/01/26 12:57:27;;;;;;;10.65;1.80;;;10.60;99.90;;;;;;5120628;27;20047;-84
2023/01/26 13:00:01;;;;;;;11.35;2.08;;;10.50;99.90;;;;;;5137380;27;20362;-83
2023/01/26 13:02:32;;;;;;;9.93;1.70;;;10.20;99.90;;;;;;5137206;27;20038;-84
2023/01/26 13:05:00;;;;;;;10.65;1.23;;;10.00;99.90;;;;;;5120201;27;20450;-84
2023/01/26 13:07:38;;;;;;;15.80;1.70;;;9.70;99.90;;;;;;5120228;27;20050;-83
2023/01/26 13:10:13;;;;;;;12.52;1.50;;;9.40;99.90;;;;;;5137201;27;20046;-82
2023/01/26 13:12:56;;;;;;;9.35;1.17;;;9.20;99.90;;;;;;5137348;27;20039;-84
2023/01/26 13:15:28;;;;;;;17.55;2.25;;;9.10;99.90;;;;;;5120733;27;20051;-83
2023/01/26 13:18:00;;;;;;;13.80;1.58;;;9.10;99.90;;;;;;5137386;27;20401;-84
2023/01/26 13:20:47;;;;;;;10.50;1.73;;;9.00;99.90;;;;;;5120239;27;20041;-85
2023/01/26 13:23:39;;;;;;;12.15;1.50;;;9.00;99.90;;;;;;5137083;27;20470;-84
2023/01/26 13:26:24;;;;;;;10.90;1.52;;;8.80;99.90;;;;;;5118791;27;20551;-85
2023/01/26 13:28:52;;;;;;;10.98;1.60;;;8.80;99.90;;;;;;5119744;27;20050;-83
2023/01/26 13:31:33;;;;;;;12.20;1.42;;;8.80;99.90;;;;;;5119828;27;20034;-84
2023/01/26 13:34:05;;;;;;;10.30;1.50;;;8.70;99.90;;;;;;5081903;27;20038;-84
2023/01/26 13:36:33;;;;;;;;;;;8.60;99.90;;;;;;5099983;27;20456;-84
2023/01/26 13:39:15;;;;;;;8.05;1.20;;;8.50;99.90;;;;;;5132572;27;20313;-83
2023/01/26 13:41:46;;;;;;;8.77;1.35;;;8.40;99.90;;;;;;5099074;27;20051;-83